Time;durP1;ratioP1;P1;durP2;ratioP2;P2;SDS_P1;SDS_P2;PMS_P1;PMS_P2;Temp;Humidity;BMP_temperature;BMP_pressure;BME280_temperature;BME280_humidity;BME280_pressure;Samples;Min_cycle;Max_cycle;Signal;HPM_P1;HPM_P2
2023/02/09 00:00:07;;;;;;;;;74.50;57.00;;;;;4.49;92.15;102433.22;4873270;29;45308;-81
2023/02/09 00:02:33;;;;;;;;;71.25;57.00;;;;;4.37;91.98;102416.63;4888946;29;45352;-81
2023/02/09 00:04:58;;;;;;;;;69.75;56.50;;;;;4.40;92.51;102432.59;4889201;29;45424;-82
2023/02/09 00:07:24;;;;;;;;;66.75;55.75;;;;;4.37;92.66;102432.41;4887117;29;45315;-82
2023/02/09 00:09:50;;;;;;;;;72.50;58.00;;;;;4.38;92.75;102426.31;4891094;29;45383;-82
2023/02/09 00:15:13;;;;;;;;;63.75;52.50;;;;;4.25;92.50;102419.34;4889007;29;45505;-81
2023/02/09 00:17:39;;;;;;;;;62.25;51.25;;;;;4.26;92.69;102422.88;4871625;29;45803;-81
2023/02/09 00:20:06;;;;;;;;;62.75;51.25;;;;;4.17;93.45;102403.03;4872155;29;45489;-82
2023/02/09 00:22:33;;;;;;;;;62.75;54.00;;;;;4.21;93.51;102431.38;4889003;29;45406;-83
2023/02/09 00:24:58;;;;;;;;;68.50;55.50;;;;;4.11;94.37;102422.78;4889609;29;45350;-82
2023/02/09 00:27:24;;;;;;;;;61.25;52.25;;;;;4.08;93.94;102417.28;4872182;29;44891;-82
2023/02/09 00:29:50;;;;;;;;;70.25;56.00;;;;;4.07;95.34;102413.75;4888906;29;45353;-82
2023/02/09 00:32:15;;;;;;;;;62.50;49.25;;;;;4.02;95.85;102412.56;4873817;29;47437;-82
2023/02/09 00:34:42;;;;;;;;;70.25;56.00;;;;;4.06;96.14;102414.56;4873708;29;45365;-83
2023/02/09 00:37:08;;;;;;;;;65.75;53.75;;;;;3.93;95.65;102410.19;4873923;29;45393;-83
2023/02/09 00:39:33;;;;;;;;;66.00;55.00;;;;;3.87;96.52;102411.50;4873519;29;45752;-82
2023/02/09 00:42:04;;;;;;;;;65.00;54.00;;;;;3.87;96.75;102414.13;4889344;29;45859;-82
2023/02/09 00:44:30;;;;;;;;;70.25;57.25;;;;;3.84;96.31;102406.94;4874528;29;45484;-82
2023/02/09 00:46:55;;;;;;;;;63.50;51.25;;;;;3.77;97.04;102395.06;4873836;29;45368;-82
2023/02/09 00:49:21;;;;;;;;;69.00;56.50;;;;;3.75;97.56;102396.69;4890801;29;45665;-82
2023/02/09 00:51:46;;;;;;;;;65.75;52.50;;;;;3.80;97.43;102408.44;4906824;29;45469;-82
2023/02/09 00:54:13;;;;;;;;;61.25;51.75;;;;;3.77;97.35;102402.97;4907204;29;45477;-83
2023/02/09 00:56:38;;;;;;;;;69.50;56.00;;;;;3.71;97.87;102409.53;4892084;29;45398;-82
2023/02/09 00:59:03;;;;;;;;;69.25;54.25;;;;;3.75;97.60;102407.22;4907968;29;45457;-83
2023/02/09 01:01:29;;;;;;;;;67.50;54.50;;;;;3.79;98.11;102413.59;4907926;29;46636;-83
2023/02/09 01:03:55;;;;;;;;;62.75;52.75;;;;;3.82;98.30;102408.56;4890497;29;45410;-82
2023/02/09 01:06:20;;;;;;;;;61.25;52.25;;;;;3.77;98.49;102421.38;4890370;29;45436;-83
2023/02/09 01:08:46;;;;;;;;;66.75;54.50;;;;;3.76;98.49;102418.66;4894044;28;45434;-83
2023/02/09 01:11:27;;;;;;;;;66.00;52.25;;;;;3.81;98.34;102419.88;4891454;29;48193;-82
2023/02/09 01:13:54;;;;;;;;;64.00;51.25;;;;;3.76;98.63;102422.22;4891176;29;45436;-83
2023/02/09 01:16:20;;;;;;;;;60.75;51.00;;;;;3.64;98.67;102402.94;4891676;29;45402;-82
2023/02/09 01:18:45;;;;;;;;;64.00;52.25;;;;;3.64;98.60;102402.94;4909249;29;45390;-83
2023/02/09 01:21:15;;;;;;;;;65.25;53.25;;;;;3.74;98.87;102410.66;4908629;29;46055;-83
2023/02/09 01:23:40;;;;;;;;;62.50;51.00;;;;;3.64;98.86;102405.56;4888771;29;45417;-83
2023/02/09 01:26:08;;;;;;;;;62.25;51.75;;;;;3.63;99.25;102411.63;4888628;29;45280;-81
2023/02/09 01:28:34;;;;;;;;;62.25;51.25;;;;;3.54;99.38;102416.28;4887049;29;44857;-81
2023/02/09 01:30:59;;;;;;;;;61.00;48.25;;;;;3.47;99.29;102406.13;4887203;29;45324;-82
2023/02/09 01:33:25;;;;;;;;;59.25;48.75;;;;;3.47;99.76;102414.00;4886220;29;45527;-82
2023/02/09 01:35:55;;;;;;;;;55.75;48.25;;;;;3.45;99.95;102410.34;4888059;29;45753;-82
2023/02/09 01:38:20;;;;;;;;;51.25;46.25;;;;;3.44;100.00;102405.91;4887258;29;45267;-82
2023/02/09 01:40:47;;;;;;;;;60.75;47.50;;;;;3.42;100.00;102408.44;4870940;29;45394;-82
2023/02/09 01:43:12;;;;;;;;;62.00;51.25;;;;;3.35;100.00;102419.31;4887446;29;45467;-81
2023/02/09 01:45:44;;;;;;;;;70.50;57.25;;;;;3.39;100.00;102424.91;4888300;29;45415;-81
2023/02/09 01:48:10;;;;;;;;;64.00;53.75;;;;;3.31;100.00;102417.28;4889373;29;44792;-82
2023/02/09 01:50:42;;;;;;;;;65.75;56.00;;;;;3.39;100.00;102410.84;4871049;29;46814;-82
2023/02/09 01:53:08;;;;;;;;;59.75;50.00;;;;;3.45;100.00;102427.03;4871730;29;45716;-82
2023/02/09 01:55:43;;;;;;;;;66.25;54.75;;;;;3.51;100.00;102426.56;4886646;29;44780;-82
2023/02/09 01:58:12;;;;;;;;;62.50;52.75;;;;;3.47;100.00;102421.91;4887688;29;45419;-81
2023/02/09 02:00:40;;;;;;;;;59.50;50.50;;;;;3.37;100.00;102421.28;4871815;29;48032;-81
2023/02/09 02:03:11;;;;;;;;;62.75;49.25;;;;;3.45;100.00;102423.50;4888149;29;45516;-82
2023/02/09 02:05:39;;;;;;;;;65.50;52.75;;;;;3.42;100.00;102426.84;4886732;29;45491;-83
2023/02/09 02:08:20;;;;;;;;;56.75;46.75;;;;;3.38;100.00;102415.19;4887329;29;45587;-82
2023/02/09 02:10:45;;;;;;;;;39.75;36.75;;;;;3.35;100.00;102428.16;4873148;28;47502;-82
2023/02/09 02:13:11;;;;;;;;;56.50;47.00;;;;;3.29;100.00;102432.03;4871173;29;46209;-82
2023/02/09 02:15:55;;;;;;;;;53.50;47.50;;;;;3.34;100.00;102443.81;4871855;29;45327;-82
2023/02/09 02:18:48;;;;;;;;;55.00;47.25;;;;;3.29;100.00;102435.59;4890280;29;45398;-82
2023/02/09 02:21:43;;;;;;;;;50.00;42.25;;;;;3.28;100.00;102440.75;4874515;29;47287;-82
2023/02/09 02:24:27;;;;;;;;;48.50;44.50;;;;;3.20;100.00;102434.94;4888287;29;45426;-82
2023/02/09 02:26:58;;;;;;;;;52.00;44.50;;;;;3.05;100.00;102441.72;4872719;29;45778;-82
2023/02/09 02:29:45;;;;;;;;;46.50;40.50;;;;;3.08;100.00;102447.22;4874381;29;45650;-82
2023/02/09 02:32:22;;;;;;;;;42.75;40.25;;;;;3.05;100.00;102449.59;4873561;29;47760;-80
2023/02/09 02:35:06;;;;;;;;;48.00;38.75;;;;;3.03;100.00;102453.84;4874081;29;45483;-80
2023/02/09 02:37:55;;;;;;;;;41.25;40.50;;;;;3.03;100.00;102445.94;4890473;29;45315;-81
2023/02/09 02:40:42;;;;;;;;;52.00;44.25;;;;;3.00;100.00;102444.91;4873099;29;45358;-82
2023/02/09 02:43:35;;;;;;;;;35.25;30.75;;;;;3.02;100.00;102445.03;4889530;29;45402;-81
2023/02/09 02:46:43;;;;;;;;;42.25;41.25;;;;;2.99;100.00;102440.50;4890428;29;46647;-81
2023/02/09 02:49:28;;;;;;;;;47.50;43.25;;;;;2.97;100.00;102435.94;4893875;29;45427;-82
2023/02/09 02:51:56;;;;;;;;;45.50;41.50;;;;;2.88;100.00;102433.53;4897247;29;45649;-82
2023/02/09 02:54:29;;;;;;;;;47.50;41.50;;;;;2.86;100.00;102431.59;4893730;29;46382;-82
2023/02/09 02:57:02;;;;;;;;;44.50;42.00;;;;;2.84;100.00;102442.00;4908909;29;45654;-82
2023/02/09 02:59:41;;;;;;;;;46.25;42.00;;;;;2.82;100.00;102434.81;4908353;29;44959;-81
2023/02/09 03:02:11;;;;;;;;;48.25;44.25;;;;;2.74;100.00;102410.59;4907913;29;45466;-82
2023/02/09 03:04:39;;;;;;;;;54.00;47.25;;;;;2.79;100.00;102431.16;4908839;29;45799;-82
2023/02/09 03:07:05;;;;;;;;;52.75;45.50;;;;;2.72;100.00;102427.97;4892135;29;45957;-82
2023/02/09 03:09:31;;;;;;;;;64.75;49.25;;;;;2.68;100.00;102426.81;4890501;29;45485;-82
2023/02/09 03:12:04;;;;;;;;;52.25;46.75;;;;;2.74;100.00;102431.63;4891736;29;45443;-82
2023/02/09 03:14:46;;;;;;;;;62.75;53.25;;;;;2.77;100.00;102429.22;4912469;29;46845;-82
2023/02/09 03:17:26;;;;;;;;;63.50;52.25;;;;;2.74;100.00;102436.88;4911005;29;45513;-83
2023/02/09 03:20:02;;;;;;;;;62.25;51.75;;;;;2.68;100.00;102431.16;4894849;29;45347;-83
2023/02/09 03:22:35;;;;;;;;;66.00;54.75;;;;;2.57;100.00;102433.03;4913049;29;45528;-82
2023/02/09 03:25:07;;;;;;;;;67.25;54.75;;;;;2.59;100.00;102432.31;4894250;29;47294;-83
2023/02/09 03:27:40;;;;;;;;;67.75;50.00;;;;;2.53;100.00;102431.88;4910417;29;45905;-82
2023/02/09 03:30:08;;;;;;;;;66.25;54.50;;;;;2.42;100.00;102417.03;4908846;29;45258;-82
2023/02/09 03:32:40;;;;;;;;;63.75;49.50;;;;;2.44;100.00;102411.91;4893674;29;45492;-82
2023/02/09 03:35:10;;;;;;;;;67.75;55.75;;;;;2.36;100.00;102417.50;4892106;29;47928;-82
2023/02/09 03:37:35;;;;;;;;;66.00;53.50;;;;;2.30;100.00;102427.56;4908766;29;45597;-83
2023/02/09 03:40:01;;;;;;;;;50.75;39.00;;;;;2.27;100.00;102416.81;4891587;29;45503;-83
2023/02/09 03:42:26;;;;;;;;;68.75;57.75;;;;;2.31;100.00;102410.09;4910935;29;45390;-82
2023/02/09 03:44:52;;;;;;;;;73.00;60.00;;;;;2.37;100.00;102407.91;4911447;29;45921;-83
2023/02/09 03:47:17;;;;;;;;;44.50;38.75;;;;;2.42;100.00;102400.38;4894003;29;45432;-83
2023/02/09 03:49:44;;;;;;;;;61.50;46.75;;;;;2.40;100.00;102405.50;4890876;29;46015;-82
2023/02/09 03:52:11;;;;;;;;;65.00;56.00;;;;;2.44;100.00;102419.78;4909419;29;45420;-82
2023/02/09 03:54:38;;;;;;;;;67.75;56.25;;;;;2.38;100.00;102415.91;4894641;29;47578;-81
2023/02/09 03:57:05;;;;;;;;;65.50;56.00;;;;;2.35;100.00;102418.28;4890611;29;45483;-82
2023/02/09 03:59:34;;;;;;;;;64.25;54.00;;;;;2.32;100.00;102417.16;4891201;29;44897;-82
2023/02/09 04:02:00;;;;;;;;;71.00;58.25;;;;;2.35;100.00;102422.63;4892135;29;45498;-82
2023/02/09 04:04:26;;;;;;;;;63.50;51.25;;;;;2.30;100.00;102426.63;4889907;29;48199;-82
2023/02/09 04:06:52;;;;;;;;;68.50;55.75;;;;;2.35;100.00;102433.16;4909424;29;45345;-82
2023/02/09 04:09:18;;;;;;;;;63.00;54.25;;;;;2.34;100.00;102420.81;4892123;29;45508;-82
2023/02/09 04:11:43;;;;;;;;;65.75;55.25;;;;;2.28;100.00;102413.38;4890493;29;45459;-82
2023/02/09 04:14:09;;;;;;;;;71.50;57.00;;;;;2.23;100.00;102408.59;4908714;29;45932;-82
2023/02/09 04:16:35;;;;;;;;;73.75;57.00;;;;;2.10;100.00;102394.56;4891879;29;45983;-82
2023/02/09 04:19:01;;;;;;;;;67.50;54.25;;;;;1.99;100.00;102396.38;4891950;28;45516;-81
2023/02/09 04:21:26;;;;;;;;;65.50;55.50;;;;;1.96;100.00;102383.03;4891743;29;45463;-81
2023/02/09 04:23:52;;;;;;;;;71.00;58.75;;;;;1.96;100.00;102403.09;4908093;29;46470;-83
2023/02/09 04:26:17;;;;;;;;;74.25;59.75;;;;;1.95;100.00;102407.44;4891526;29;45212;-82
2023/02/09 04:28:43;;;;;;;;;75.50;60.00;;;;;1.91;100.00;102399.22;4891179;29;45439;-83
2023/02/09 04:31:09;;;;;;;;;75.50;61.50;;;;;1.94;100.00;102404.69;4892100;29;45615;-81
2023/02/09 04:33:34;;;;;;;;;54.75;46.50;;;;;1.93;100.00;102397.63;4908358;29;46112;-82
2023/02/09 04:36:01;;;;;;;;;79.50;62.50;;;;;1.93;100.00;102389.75;4890729;29;45336;-82
2023/02/09 04:38:27;;;;;;;;;73.25;58.25;;;;;1.88;100.00;102393.72;4891292;29;44821;-82
2023/02/09 04:40:54;;;;;;;;;75.50;58.50;;;;;1.93;100.00;102402.88;4908253;29;45676;-82
2023/02/09 04:43:20;;;;;;;;;72.50;56.00;;;;;1.89;100.00;102390.31;4891424;29;45458;-82
2023/02/09 04:45:45;;;;;;;;;71.75;59.25;;;;;1.79;100.00;102362.47;4891285;29;45528;-83
2023/02/09 04:48:14;;;;;;;;;67.00;54.75;;;;;1.91;100.00;102372.97;4893564;29;45432;-82
2023/02/09 04:50:41;;;;;;;;;45.25;41.25;;;;;1.83;100.00;102366.25;4893487;29;44979;-82
2023/02/09 04:53:07;;;;;;;;;71.50;58.75;;;;;1.87;100.00;102376.19;4909883;29;45458;-82
2023/02/09 04:55:36;;;;;;;;;67.50;56.75;;;;;1.91;100.00;102394.88;4891461;29;45833;-82
2023/02/09 05:00:46;;;;;;;;;68.50;54.00;;;;;1.86;100.00;102422.50;4908711;29;45527;-82
2023/02/09 05:03:11;;;;;;;;;72.00;55.75;;;;;1.92;100.00;102440.38;4891538;29;48318;-82
2023/02/09 05:05:41;;;;;;;;;60.75;49.00;;;;;2.01;100.00;102425.34;4892681;29;44806;-82
2023/02/09 05:08:06;;;;;;;;;73.50;59.75;;;;;2.06;100.00;102441.44;4909094;29;45407;-82
2023/02/09 05:10:32;;;;;;;;;63.00;52.00;;;;;2.05;100.00;102443.16;4909934;29;45537;-83
2023/02/09 05:12:58;;;;;;;;;75.00;59.00;;;;;2.06;100.00;102445.00;4908484;29;45624;-83
2023/02/09 05:15:23;;;;;;;;;69.00;55.50;;;;;2.08;100.00;102446.03;4890419;29;45412;-82
2023/02/09 05:17:48;;;;;;;;;70.00;57.00;;;;;2.06;100.00;102444.06;4893197;28;45351;-83
2023/02/09 05:20:21;;;;;;;;;77.00;60.00;;;;;1.99;100.00;102445.31;4888467;29;45408;-82
2023/02/09 05:22:46;;;;;;;;;47.75;42.75;;;;;1.94;100.00;102437.09;4888784;29;45403;-82
2023/02/09 05:25:12;;;;;;;;;73.00;57.75;;;;;1.88;100.00;102433.06;4870449;29;45444;-82
2023/02/09 05:27:37;;;;;;;;;71.50;58.25;;;;;1.96;100.00;102439.81;4872025;29;45855;-83
2023/02/09 05:30:03;;;;;;;;;69.25;56.25;;;;;1.85;100.00;102431.13;4872171;29;45824;-83
2023/02/09 05:32:29;;;;;;;;;68.25;57.00;;;;;1.80;100.00;102438.66;4889298;29;46362;-82
2023/02/09 05:34:54;;;;;;;;;76.75;62.75;;;;;1.85;100.00;102438.09;4870956;29;45458;-83
2023/02/09 05:37:20;;;;;;;;;67.00;56.00;;;;;1.85;100.00;102431.13;4871995;29;45544;-83
2023/02/09 05:39:45;;;;;;;;;67.75;55.75;;;;;1.86;100.00;102432.03;4872577;29;45935;-82
2023/02/09 05:42:16;;;;;;;;;55.50;44.50;;;;;1.97;100.00;102446.91;4871979;29;47071;-82
2023/02/09 05:44:44;;;;;;;;;74.00;59.00;;;;;1.92;100.00;102443.00;4889780;29;45988;-82
2023/02/09 05:47:11;;;;;;;;;70.25;57.75;;;;;1.85;100.00;102435.47;4872601;29;45437;-82
2023/02/09 05:49:36;;;;;;;;;67.75;55.50;;;;;1.89;100.00;102443.69;4872517;29;45439;-82
2023/02/09 05:52:02;;;;;;;;;70.25;54.50;;;;;1.90;100.00;102441.97;4872921;29;48464;-83
2023/02/09 05:54:27;;;;;;;;;77.00;63.50;;;;;1.72;100.00;102426.69;4880427;29;45366;-83
2023/02/09 05:56:53;;;;;;;;;68.50;56.00;;;;;1.69;100.00;102436.00;4896511;29;45447;-83
2023/02/09 05:59:18;;;;;;;;;47.50;44.75;;;;;1.64;100.00;102430.41;4877292;29;45758;-82
2023/02/09 06:01:44;;;;;;;;;63.75;51.75;;;;;1.60;100.00;102438.84;4878022;29;47557;-82
2023/02/09 06:04:09;;;;;;;;;69.00;55.50;;;;;1.60;100.00;102444.09;4879164;29;45311;-82
2023/02/09 06:06:35;;;;;;;;;63.00;53.00;;;;;1.61;100.00;102451.16;4879064;29;45299;-82
2023/02/09 06:09:01;;;;;;;;;63.00;51.75;;;;;1.52;100.00;102435.63;4879380;29;45358;-83
2023/02/09 06:11:26;;;;;;;;;73.50;58.25;;;;;1.58;100.00;102450.94;4877672;29;47054;-82
2023/02/09 06:13:52;;;;;;;;;71.50;58.25;;;;;1.50;100.00;102431.97;4878454;29;45424;-83
2023/02/09 06:16:17;;;;;;;;;72.50;57.00;;;;;1.50;100.00;102452.94;4865042;29;45476;-82
2023/02/09 06:18:43;;;;;;;;;72.00;56.75;;;;;1.55;100.00;102453.28;4879892;29;45510;-81
2023/02/09 06:21:10;;;;;;;;;60.50;49.75;;;;;1.60;100.00;102459.81;4879263;29;47228;-81
2023/02/09 06:23:36;;;;;;;;;63.25;53.00;;;;;1.49;100.00;102443.22;4879003;29;45583;-82
2023/02/09 06:26:08;;;;;;;;;58.75;48.75;;;;;1.63;100.00;102467.91;4878970;29;45523;-81
2023/02/09 06:28:34;;;;;;;;;68.00;56.25;;;;;1.54;100.00;102468.13;4896811;29;45409;-81
2023/02/09 06:30:59;;;;;;;;;67.00;54.00;;;;;1.61;100.00;102477.38;4879011;29;47541;-82
2023/02/09 06:33:25;;;;;;;;;50.25;46.50;;;;;1.56;100.00;102477.03;4897095;29;45931;-82
2023/02/09 06:35:50;;;;;;;;;59.75;50.50;;;;;1.63;100.00;102483.66;4896783;29;45422;-81
2023/02/09 06:38:15;;;;;;;;;62.50;48.50;;;;;1.65;100.00;102489.94;4896419;29;45418;-81
2023/02/09 06:40:41;;;;;;;;;52.50;45.00;;;;;1.62;100.00;102483.53;4896434;29;44902;-84
2023/02/09 06:43:06;;;;;;;;;61.00;50.25;;;;;1.62;100.00;102473.97;4866268;29;45694;-82
2023/02/09 06:45:32;;;;;;;;;62.75;47.00;;;;;1.70;100.00;102475.47;4900124;29;45777;-82
2023/02/09 06:47:57;;;;;;;;;57.75;46.50;;;;;1.63;100.00;102467.91;4880370;29;45669;-83
2023/02/09 06:50:23;;;;;;;;;51.25;44.50;;;;;1.66;100.00;102485.63;4879231;29;46680;-82
2023/02/09 06:52:48;;;;;;;;;51.25;45.25;;;;;1.69;100.00;102486.75;4897302;29;45292;-81
2023/02/09 06:55:15;;;;;;;;;48.50;42.75;;;;;1.83;100.00;102489.53;4880634;29;45360;-82
2023/02/09 06:57:40;;;;;;;;;62.75;51.00;;;;;1.80;100.00;102493.75;4880109;29;45518;-82
2023/02/09 07:00:08;;;;;;;;;54.00;42.50;;;;;1.93;100.00;102492.06;4878606;29;47156;-82
2023/02/09 07:02:34;;;;;;;;;47.00;42.50;;;;;1.94;100.00;102496.50;4896358;29;45487;-81
2023/02/09 07:05:00;;;;;;;;;57.50;42.25;;;;;2.01;100.00;102493.56;4891689;29;45468;-82
2023/02/09 07:07:26;;;;;;;;;43.25;39.25;;;;;1.99;100.00;102487.31;4895059;28;45475;-82
2023/02/09 07:09:51;;;;;;;;;68.75;48.75;;;;;1.99;100.00;102487.31;4875595;29;47627;-82
2023/02/09 07:12:23;;;;;;;;;49.00;43.00;;;;;2.04;100.00;102485.97;4878093;29;45509;-82
2023/02/09 07:14:48;;;;;;;;;48.25;42.25;;;;;2.01;100.00;102493.56;4873723;29;45535;-83
2023/02/09 07:17:14;;;;;;;;;48.25;45.50;;;;;2.06;100.00;102488.69;4890191;29;45347;-85
2023/02/09 07:19:40;;;;;;;;;61.50;46.50;;;;;1.94;100.00;102479.09;4873599;29;45533;-83
2023/02/09 07:22:05;;;;;;;;;58.50;46.00;;;;;2.04;100.00;102499.09;4874183;29;45656;-82
2023/02/09 07:24:31;;;;;;;;;49.75;46.00;;;;;2.00;100.00;102489.16;4875075;29;45500;-82
2023/02/09 07:26:56;;;;;;;;;55.25;44.50;;;;;1.95;100.00;102480.00;4876765;29;45454;-82
2023/02/09 07:29:22;;;;;;;;;58.50;47.00;;;;;2.11;100.00;102503.06;4876202;29;47028;-83
2023/02/09 07:31:47;;;;;;;;;52.75;44.25;;;;;2.08;100.00;102501.13;4884383;29;45393;-82
2023/02/09 07:34:12;;;;;;;;;58.75;49.25;;;;;2.11;100.00;102503.97;4912552;29;45402;-83
2023/02/09 07:36:38;;;;;;;;;48.25;44.25;;;;;2.24;100.00;102510.16;4896670;29;45359;-83
2023/02/09 07:39:03;;;;;;;;;52.25;44.25;;;;;2.29;100.00;102508.81;4896744;29;46904;-82
2023/02/09 07:41:29;;;;;;;;;58.00;48.25;;;;;2.40;100.00;102513.16;4876574;29;44873;-84
2023/02/09 07:43:55;;;;;;;;;66.50;53.75;;;;;2.55;100.00;102530.06;4878902;29;44884;-82
2023/02/09 07:46:43;;;;;;;;;61.00;48.00;;;;;2.63;100.00;102528.03;4902050;29;45638;-82
2023/02/09 07:49:10;;;;;;;;;68.00;51.00;;;;;2.59;100.00;102502.34;4893954;29;46060;-84
2023/02/09 07:51:36;;;;;;;;;69.50;54.00;;;;;2.73;100.00;102529.63;4891741;29;45524;-82
2023/02/09 07:54:03;;;;;;;;;67.00;53.75;;;;;2.78;100.00;102538.75;4875476;29;45512;-82
2023/02/09 07:56:29;;;;;;;;;64.00;53.00;;;;;2.74;100.00;102519.22;4877056;29;45606;-82
2023/02/09 07:58:59;;;;;;;;;71.25;56.50;;;;;2.96;100.00;102541.84;4877834;29;48077;-83
2023/02/09 08:01:34;;;;;;;;;63.00;54.00;;;;;3.01;100.00;102553.63;4901759;29;44837;-82
2023/02/09 08:03:59;;;;;;;;;62.25;49.50;;;;;2.66;100.00;102507.22;4894028;29;45353;-83
2023/02/09 08:06:33;;;;;;;;;58.25;48.25;;;;;3.09;100.00;102577.81;4884315;29;45386;-84
2023/02/09 08:09:01;;;;;;;;;65.25;53.50;;;;;2.91;100.00;102557.28;4911515;29;45418;-82
2023/02/09 08:12:00;;;;;;;;;62.25;51.00;;;;;3.08;100.00;102574.28;4909824;29;45727;-84
2023/02/09 08:14:30;;;;;;;;;61.50;49.75;;;;;3.08;100.00;102584.81;4869689;29;45376;-83
2023/02/09 08:17:20;;;;;;;;;63.50;52.75;;;;;3.04;100.00;102590.63;4874288;29;45345;-81
2023/02/09 08:19:57;;;;;;;;;67.00;54.25;;;;;3.02;100.00;102586.06;4858144;29;46092;-84
2023/02/09 08:22:27;;;;;;;;;65.25;51.75;;;;;3.04;100.00;102594.97;4878127;29;45406;-84
2023/02/09 08:24:53;;;;;;;;;65.75;55.25;;;;;3.05;100.00;102588.91;4864990;29;45470;-82
2023/02/09 08:27:18;;;;;;;;;63.50;53.50;;;;;3.15;100.00;102600.25;4883419;29;45353;-82
2023/02/09 08:29:44;;;;;;;;;65.50;53.25;;;;;3.00;100.00;102573.72;4872452;29;47640;-82
2023/02/09 08:32:10;;;;;;;;;76.00;60.00;;;;;3.19;100.00;102585.59;4872594;29;45515;-84
2023/02/09 08:34:35;;;;;;;;;68.50;55.50;;;;;3.25;100.00;102591.28;4871148;29;45280;-83
2023/02/09 08:37:01;;;;;;;;;68.00;56.25;;;;;3.29;100.00;102588.13;4888913;29;45362;-82
2023/02/09 08:39:29;;;;;;;;;75.00;59.75;;;;;3.46;100.00;102606.84;4872771;29;47378;-84
2023/02/09 08:41:56;;;;;;;;;65.00;51.25;;;;;3.42;100.00;102587.28;4877530;29;45451;-83
2023/02/09 08:44:23;;;;;;;;;73.25;56.75;;;;;3.45;100.00;102599.72;4890295;29;45391;-82
2023/02/09 08:46:49;;;;;;;;;63.25;51.00;;;;;3.66;100.00;102622.34;4871811;29;45514;-83
2023/02/09 08:52:51;;;;;;;;;61.00;52.50;;;;;3.71;100.00;102602.53;4890622;29;45284;-83
2023/02/09 08:55:19;;;;;;;;;61.50;51.75;;;;;3.81;100.00;102633.06;4872176;29;45355;-84
2023/02/09 09:08:22;;;;;;;;;;;;;;;;;;;;;
2023/02/09 09:10:53;;;;;;;;;67.00;55.25;;;;;3.56;100.00;102590.91;4833415;29;45416;-85
2023/02/09 09:13:37;;;;;;;;;61.75;53.75;;;;;3.96;100.00;102651.69;4841163;29;46015;-83
2023/02/09 09:16:49;;;;;;;;;68.25;56.25;;;;;4.10;100.00;102653.59;4852544;29;46122;-84
2023/02/09 09:31:50;;;;;;;;;59.50;49.00;;;;;4.32;100.00;102605.97;5231532;23;46820;-85
2023/02/09 09:35:05;;;;;;;;;71.75;56.50;;;;;4.26;100.00;102605.50;4917167;28;45989;-84
2023/02/09 09:37:39;;;;;;;;;69.75;56.00;;;;;4.25;100.00;102608.06;4886844;28;46796;-83
2023/02/09 09:50:44;;;;;;;;;63.25;51.50;;;;;4.77;100.00;102625.72;4760649;23;45497;-85
2023/02/09 09:53:34;;;;;;;;;58.50;47.50;;;;;4.64;100.00;102578.25;4928646;28;45711;-84
2023/02/09 09:56:54;;;;;;;;;;;;;;;;;;;;;
2023/02/09 10:06:16;;;;;;;;;53.00;46.25;;;;;5.46;100.00;102604.75;4852818;29;45514;-82
2023/02/09 10:13:01;;;;;;;;;59.75;49.25;;;;;5.87;98.90;102636.41;4819921;29;45457;-83
2023/02/09 10:18:48;;;;;;;;;;;;;;;;;;;;;
2023/02/09 10:28:33;;;;;;;;;54.25;43.25;;;;;5.78;96.64;102599.78;4844726;29;44943;-83
2023/02/09 10:31:49;;;;;;;;;60.75;48.50;;;;;5.76;96.42;102580.31;4838397;29;45471;-82
2023/02/09 10:52:11;;;;;;;;;63.25;50.25;;;;;6.77;92.33;102612.06;4815015;29;46128;-83
2023/02/09 10:56:03;;;;;;;;;58.00;45.25;;;;;6.88;91.06;102601.19;4794468;29;45011;-84
2023/02/09 11:30:20;;;;;;;;;49.50;43.50;;;;;7.21;82.70;102594.31;4918092;28;46457;-83
2023/02/09 11:36:30;;;;;;;;;55.50;45.00;;;;;7.34;81.03;102596.84;4921482;28;45771;-85
2023/02/09 11:39:43;;;;;;;;;38.25;33.50;;;;;7.31;82.90;102577.22;4898643;29;45328;-84
2023/02/09 11:49:17;;;;;;;;;43.50;35.50;;;;;7.28;78.45;102532.97;4894397;29;45457;-84
2023/02/09 12:12:57;;;;;;;;;56.50;44.25;;;;;8.18;78.38;102584.69;4738112;29;44793;-83
2023/02/09 12:19:17;;;;;;;;;52.25;43.50;;;;;7.98;74.26;102533.28;4771751;29;44981;-84
2023/02/09 12:21:59;;;;;;;;;55.00;41.75;;;;;8.16;76.96;102570.47;4749760;29;45473;-85
2023/02/09 12:28:14;;;;;;;;;;;;;;;;;;;;;
2023/02/09 12:31:17;;;;;;;;;54.00;46.50;;;;;8.46;77.53;102583.53;4914538;29;45415;-83
2023/02/09 12:33:43;;;;;;;;;64.50;50.50;;;;;8.41;73.32;102583.28;4910488;29;47058;-83
2023/02/09 12:36:33;;;;;;;;;56.25;45.25;;;;;8.35;72.87;102567.03;4905598;29;45482;-83
2023/02/09 12:39:23;;;;;;;;;54.00;46.00;;;;;8.25;77.13;102555.88;4893776;28;45485;-85
2023/02/09 12:41:49;;;;;;;;;55.00;45.25;;;;;8.38;74.35;102593.72;4874317;28;44826;-81
2023/02/09 12:44:15;;;;;;;;;55.50;46.75;;;;;8.41;71.25;102593.00;4857563;29;46835;-81
2023/02/09 12:46:43;;;;;;;;;57.50;47.50;;;;;8.46;74.97;102577.31;4856867;29;45002;-82
2023/02/09 12:49:51;;;;;;;;;55.50;43.75;;;;;8.51;76.70;102573.19;4857064;29;45322;-83
2023/02/09 12:52:18;;;;;;;;;52.00;44.00;;;;;8.58;77.45;102581.53;4857242;29;45459;-83
2023/02/09 12:54:55;;;;;;;;;56.00;44.00;;;;;8.51;75.79;102549.31;4874059;29;45397;-85
2023/02/09 12:57:22;;;;;;;;;61.50;49.25;;;;;8.61;76.91;102575.47;4876990;29;44976;-84
2023/02/09 13:00:07;;;;;;;;;43.00;40.50;;;;;8.63;73.17;102594.13;4877882;29;45451;-82
2023/02/09 13:02:49;;;;;;;;;58.75;50.50;;;;;8.67;73.61;102585.50;4873352;29;45393;-80
2023/02/09 13:05:17;;;;;;;;;59.75;48.50;;;;;8.65;76.17;102596.00;4868965;29;47042;-80
2023/02/09 13:08:01;;;;;;;;;59.50;47.00;;;;;8.84;73.49;102594.31;4870256;29;45450;-82
2023/02/09 13:10:53;;;;;;;;;62.00;48.50;;;;;8.88;75.57;102594.53;4867727;29;45422;-83
2023/02/09 13:13:24;;;;;;;;;55.50;44.75;;;;;8.97;74.53;102600.31;4867576;29;45737;-83
2023/02/09 13:15:50;;;;;;;;;57.75;46.75;;;;;8.95;75.40;102601.97;4861669;29;47373;-83
2023/02/09 13:18:21;;;;;;;;;51.50;44.00;;;;;8.98;74.70;102588.84;4864031;29;45310;-83
2023/02/09 13:21:08;;;;;;;;;57.75;45.25;;;;;8.92;73.54;102548.75;4908195;29;45484;-83
2023/02/09 13:23:49;;;;;;;;;50.00;42.50;;;;;9.12;72.62;102578.03;4909855;29;45529;-82
2023/02/09 13:26:25;;;;;;;;;58.00;46.50;;;;;9.25;72.92;102569.84;4907457;29;46659;-83
2023/02/09 13:29:11;;;;;;;;;55.00;44.50;;;;;9.36;72.73;102563.28;4892284;29;45640;-82
2023/02/09 13:32:17;;;;;;;;;53.33;44.00;;;;;9.42;70.95;102568.00;4911489;28;44769;-83
2023/02/09 13:35:03;;;;;;;;;51.75;41.00;;;;;9.58;72.20;102574.94;4918165;29;45385;-82
2023/02/09 13:37:36;;;;;;;;;45.67;40.33;;;;;9.67;71.00;102580.69;4903260;28;45401;-84
2023/02/09 13:40:23;;;;;;;;;45.33;40.00;;;;;9.77;71.30;102577.63;4890583;29;45487;-82
2023/02/09 13:42:53;;;;;;;;;49.75;42.00;;;;;9.85;70.66;102585.06;4902437;29;45456;-83
2023/02/09 13:45:22;;;;;;;;;50.75;41.25;;;;;9.52;70.13;102533.06;4895076;29;45386;-83
2023/02/09 13:47:49;;;;;;;;;51.67;41.00;;;;;9.58;68.14;102532.44;4910017;29;47078;-83
2023/02/09 13:50:20;;;;;;;;;45.00;40.33;;;;;9.60;64.71;102509.53;4911583;29;45278;-82
2023/02/09 13:52:49;;;;;;;;;50.00;41.00;;;;;9.86;65.51;102560.31;4911637;29;44783;-83
2023/02/09 13:55:24;;;;;;;;;47.33;41.00;;;;;9.91;64.50;102566.72;4909730;29;45403;-83
2023/02/09 13:58:03;;;;;;;;;48.67;41.33;;;;;9.75;57.32;102539.44;4888843;29;47125;-82
2023/02/09 14:00:34;;;;;;;;;46.00;40.33;;;;;10.04;64.71;102577.09;4891768;29;45454;-82
2023/02/09 14:03:27;;;;;;;;;52.00;41.33;;;;;9.74;60.36;102512.81;4905795;29;45542;-83
2023/02/09 14:06:24;;;;;;;;;47.67;41.00;;;;;10.09;62.49;102582.63;4902238;29;44803;-82
2023/02/09 14:08:56;;;;;;;;;48.00;42.00;;;;;9.84;63.57;102556.63;4914076;29;45745;-82